createdAt,value
2019-04-29T00:00:33.829Z,0.00
2019-04-29T00:01:33.701Z,0.00
2019-04-29T00:02:33.566Z,0.00
2019-04-29T00:03:33.440Z,0.00
2019-04-29T00:04:33.301Z,0.00
2019-04-29T00:05:33.168Z,0.00
2019-04-29T00:06:33.036Z,0.00
2019-04-29T00:07:32.902Z,0.00
2019-04-29T00:08:32.778Z,0.00
2019-04-29T00:09:32.636Z,0.00
2019-04-29T00:10:32.505Z,0.00
2019-04-29T00:11:32.372Z,0.00
2019-04-29T00:12:32.245Z,0.00
2019-04-29T00:13:32.108Z,0.00
2019-04-29T00:14:31.981Z,0.00
2019-04-29T00:15:31.842Z,0.00
2019-04-29T00:16:31.711Z,0.00
2019-04-29T00:17:31.576Z,0.00
2019-04-29T00:18:31.463Z,0.00
2019-04-29T00:19:31.319Z,0.00
2019-04-29T00:20:31.179Z,0.00
2019-04-29T00:21:31.059Z,0.00
2019-04-29T00:22:30.913Z,0.00
2019-04-29T00:23:30.780Z,0.00
2019-04-29T00:24:30.649Z,0.00
2019-04-29T00:25:30.515Z,0.00
2019-04-29T00:26:30.383Z,0.00
2019-04-29T00:27:30.250Z,0.00
2019-04-29T00:28:30.123Z,0.00
2019-04-29T00:29:29.984Z,0.00
2019-04-29T00:30:29.855Z,0.00
2019-04-29T00:31:29.716Z,0.00
2019-04-29T00:32:29.585Z,0.00
2019-04-29T00:33:29.462Z,0.00
2019-04-29T00:34:29.322Z,0.00
2019-04-29T00:35:29.184Z,0.00
2019-04-29T00:36:29.053Z,0.00
2019-04-29T00:37:28.927Z,0.00
2019-04-29T00:38:28.787Z,0.00
2019-04-29T00:39:28.656Z,0.00
2019-04-29T00:40:28.620Z,0.00
2019-04-29T00:41:28.389Z,0.00
2019-04-29T00:42:28.256Z,0.00
2019-04-29T00:43:28.124Z,0.00
2019-04-29T00:44:27.998Z,0.00
2019-04-29T00:45:27.857Z,0.00
2019-04-29T00:46:27.722Z,0.00
2019-04-29T00:47:27.591Z,0.00
2019-04-29T00:48:27.458Z,0.00
2019-04-29T00:49:27.327Z,0.00
2019-04-29T00:50:27.190Z,0.00
2019-04-29T00:51:27.059Z,0.00
2019-04-29T00:52:26.926Z,0.00
2019-04-29T00:53:26.859Z,0.00
2019-04-29T00:54:26.666Z,0.00
2019-04-29T00:55:26.533Z,0.00
2019-04-29T00:56:26.397Z,0.00
2019-04-29T00:57:26.260Z,0.00
2019-04-29T00:58:26.129Z,0.00
2019-04-29T00:59:25.994Z,0.00
2019-04-29T01:00:25.860Z,0.00
2019-04-29T01:01:25.733Z,0.00
2019-04-29T01:02:25.597Z,0.00
2019-04-29T01:03:25.463Z,0.00
2019-04-29T01:04:25.330Z,0.00
2019-04-29T01:05:25.200Z,0.00
2019-04-29T01:06:25.070Z,0.00
2019-04-29T01:07:24.935Z,0.00
2019-04-29T01:08:24.799Z,0.00
2019-04-29T01:09:24.671Z,0.00
2019-04-29T01:10:24.542Z,0.00
2019-04-29T01:11:24.398Z,0.00
2019-04-29T01:12:24.268Z,0.00
2019-04-29T01:13:24.192Z,0.00
2019-04-29T01:14:24.002Z,0.00
2019-04-29T01:15:23.875Z,0.00
2019-04-29T01:16:23.735Z,0.00
2019-04-29T01:17:23.609Z,0.00
2019-04-29T01:18:23.469Z,0.00
2019-04-29T01:19:23.336Z,0.00
2019-04-29T01:20:23.203Z,0.00
2019-04-29T01:21:23.074Z,0.00
2019-04-29T01:22:22.941Z,0.00
2019-04-29T01:23:22.805Z,0.00
2019-04-29T01:24:22.671Z,0.00
2019-04-29T01:25:22.539Z,0.00
2019-04-29T01:26:22.403Z,0.00
2019-04-29T01:27:22.272Z,0.00
2019-04-29T01:28:22.146Z,0.00
2019-04-29T01:29:22.005Z,0.00
2019-04-29T01:30:21.873Z,0.00
2019-04-29T01:31:21.738Z,0.00
2019-04-29T01:32:21.604Z,0.00
2019-04-29T01:33:21.472Z,0.00
2019-04-29T01:34:21.342Z,0.00
2019-04-29T01:35:21.206Z,0.00
2019-04-29T01:36:21.072Z,0.00
2019-04-29T01:37:20.940Z,0.00
2019-04-29T01:38:20.810Z,0.00
2019-04-29T01:39:20.674Z,0.00
2019-04-29T01:40:20.539Z,0.00
2019-04-29T01:41:20.405Z,0.00
2019-04-29T01:42:20.276Z,0.00
2019-04-29T01:43:20.140Z,0.00
2019-04-29T01:44:20.009Z,0.00
2019-04-29T01:45:19.875Z,0.00
2019-04-29T01:46:19.742Z,0.00
2019-04-29T01:47:19.609Z,0.00
2019-04-29T01:48:19.478Z,0.00
2019-04-29T01:49:19.344Z,0.00
2019-04-29T01:50:19.214Z,0.00
2019-04-29T01:51:19.115Z,0.00
2019-04-29T01:52:18.947Z,0.00
2019-04-29T01:53:18.816Z,0.00
2019-04-29T01:54:18.680Z,0.00
2019-04-29T01:55:18.546Z,0.00
2019-04-29T01:56:18.416Z,0.00
2019-04-29T01:57:18.284Z,0.00
2019-04-29T01:58:18.154Z,0.00
2019-04-29T01:59:18.018Z,0.00
2019-04-29T02:00:17.893Z,0.00
2019-04-29T02:01:17.752Z,0.00
2019-04-29T02:02:17.623Z,0.00
2019-04-29T02:03:17.487Z,0.00
2019-04-29T02:04:17.361Z,0.00
2019-04-29T02:05:17.222Z,0.00
2019-04-29T02:06:17.090Z,0.00
2019-04-29T02:07:16.961Z,0.00
2019-04-29T02:08:16.824Z,0.00
2019-04-29T02:09:16.690Z,0.00
2019-04-29T02:10:16.560Z,0.00
2019-04-29T02:11:16.424Z,0.00
2019-04-29T02:12:16.294Z,0.00
2019-04-29T02:13:16.162Z,0.00
2019-04-29T02:14:16.029Z,0.00
2019-04-29T02:15:15.897Z,0.00
2019-04-29T02:16:15.762Z,0.00
2019-04-29T02:17:15.630Z,0.00
2019-04-29T02:18:15.499Z,0.00
2019-04-29T02:19:15.366Z,0.00
2019-04-29T02:20:15.310Z,0.00
2019-04-29T02:21:15.103Z,0.00
2019-04-29T02:22:14.966Z,0.00
2019-04-29T02:23:14.838Z,0.00
2019-04-29T02:24:14.703Z,0.00
2019-04-29T02:25:14.571Z,0.00
2019-04-29T02:26:14.438Z,0.00
2019-04-29T02:27:14.304Z,0.00
2019-04-29T02:28:14.228Z,0.00
2019-04-29T02:29:14.043Z,0.00
2019-04-29T02:30:13.909Z,0.00
2019-04-29T02:31:13.774Z,0.00
2019-04-29T02:32:13.654Z,0.00
2019-04-29T02:33:13.513Z,0.00
2019-04-29T02:34:13.378Z,0.00
2019-04-29T02:35:13.248Z,0.00
2019-04-29T02:36:13.114Z,0.00
2019-04-29T02:37:12.980Z,0.00
2019-04-29T02:38:12.853Z,0.00
2019-04-29T02:39:12.725Z,0.00
2019-04-29T02:40:12.590Z,0.00
2019-04-29T02:41:12.450Z,0.00
2019-04-29T02:42:12.314Z,0.00
2019-04-29T02:43:12.182Z,0.00
2019-04-29T02:44:12.051Z,0.00
2019-04-29T02:45:11.921Z,0.00
2019-04-29T02:46:11.783Z,0.00
2019-04-29T02:47:11.651Z,0.00
2019-04-29T02:48:11.517Z,0.00
2019-04-29T02:49:11.386Z,0.00
2019-04-29T02:50:11.386Z,0.00
2019-04-29T02:51:11.122Z,0.00
2019-04-29T02:52:10.987Z,0.00
2019-04-29T02:53:10.864Z,0.00
2019-04-29T02:54:10.721Z,0.00
2019-04-29T02:55:10.592Z,0.00
2019-04-29T02:56:10.457Z,0.00
2019-04-29T02:57:10.327Z,0.00
2019-04-29T02:58:12.487Z,0.00
2019-04-29T02:59:10.053Z,0.00
2019-04-29T03:00:09.924Z,0.00
2019-04-29T03:01:09.812Z,0.00
2019-04-29T03:02:09.655Z,0.00
2019-04-29T03:03:09.524Z,0.00
2019-04-29T03:04:09.389Z,0.00
2019-04-29T03:05:09.262Z,0.00
2019-04-29T03:06:09.128Z,0.00
2019-04-29T03:07:08.998Z,0.00
2019-04-29T03:08:08.858Z,0.00
2019-04-29T03:09:08.734Z,0.00
2019-04-29T03:10:08.593Z,0.00
2019-04-29T03:11:08.458Z,0.00
2019-04-29T03:12:08.328Z,0.00
2019-04-29T03:13:08.205Z,0.00
2019-04-29T03:14:08.072Z,0.00
2019-04-29T03:15:07.927Z,0.00
2019-04-29T03:16:07.798Z,0.00
2019-04-29T03:17:07.668Z,0.00
2019-04-29T03:18:07.530Z,0.00
2019-04-29T03:19:07.399Z,0.00
2019-04-29T03:20:07.267Z,0.00
2019-04-29T03:21:07.133Z,0.00
2019-04-29T03:22:07.001Z,0.00
2019-04-29T03:23:06.866Z,0.00
2019-04-29T03:24:06.733Z,0.00
2019-04-29T03:25:06.616Z,0.00
2019-04-29T03:26:06.470Z,0.00
2019-04-29T03:27:06.336Z,0.00
2019-04-29T03:28:06.207Z,0.00
2019-04-29T03:29:06.071Z,0.00
2019-04-29T03:30:05.999Z,0.00
2019-04-29T03:31:05.804Z,0.00
2019-04-29T03:32:05.683Z,0.00
2019-04-29T03:33:05.544Z,0.00
2019-04-29T03:34:05.415Z,0.00
2019-04-29T03:35:05.276Z,0.00
2019-04-29T03:36:05.139Z,0.00
2019-04-29T03:37:05.015Z,0.00
2019-04-29T03:38:04.875Z,0.00
2019-04-29T03:39:04.741Z,0.00
2019-04-29T03:40:04.606Z,0.00
2019-04-29T03:41:04.475Z,0.00
2019-04-29T03:42:07.187Z,0.00
2019-04-29T03:43:04.213Z,0.00
2019-04-29T03:44:04.094Z,0.00
2019-04-29T03:45:03.954Z,0.00
2019-04-29T03:46:03.819Z,0.00
2019-04-29T03:47:03.677Z,0.00
2019-04-29T03:48:03.544Z,4.00
2019-04-29T03:49:03.413Z,4.00
2019-04-29T03:50:03.277Z,4.00
2019-04-29T03:51:03.145Z,4.00
2019-04-29T03:52:03.012Z,4.00
2019-04-29T03:53:02.878Z,4.00
2019-04-29T03:54:02.746Z,4.00
2019-04-29T03:55:02.615Z,8.00
2019-04-29T03:56:02.483Z,4.00
2019-04-29T03:57:02.359Z,8.00
2019-04-29T03:58:02.215Z,12.00
2019-04-29T03:59:02.080Z,12.00
2019-04-29T04:00:01.962Z,8.00
2019-04-29T04:01:01.816Z,12.00
2019-04-29T04:02:01.688Z,16.00
2019-04-29T04:03:01.554Z,16.00
2019-04-29T04:04:01.415Z,20.00
2019-04-29T04:05:01.283Z,24.00
2019-04-29T04:06:01.156Z,28.00
2019-04-29T04:07:04.006Z,32.00
2019-04-29T04:08:00.883Z,36.00
2019-04-29T04:09:06.051Z,44.00
2019-04-29T04:10:00.623Z,48.00
2019-04-29T04:11:00.493Z,48.00
2019-04-29T04:12:00.352Z,56.00
2019-04-29T04:13:00.219Z,60.00
2019-04-29T04:14:00.090Z,64.00
2019-04-29T04:14:59.952Z,68.00
2019-04-29T04:15:59.823Z,72.00
2019-04-29T04:17:00.565Z,76.00
2019-04-29T04:17:59.556Z,84.00
2019-04-29T04:18:59.429Z,88.00
2019-04-29T04:19:59.289Z,96.00
2019-04-29T04:20:59.161Z,100.00
2019-04-29T04:21:59.023Z,108.00
2019-04-29T04:22:58.893Z,108.00
2019-04-29T04:23:58.759Z,108.00
2019-04-29T04:24:58.631Z,112.00
2019-04-29T04:25:58.489Z,116.00
2019-04-29T04:26:58.355Z,128.00
2019-04-29T04:27:58.223Z,132.00
2019-04-29T04:28:58.092Z,140.00
2019-04-29T04:29:57.958Z,148.00
2019-04-29T04:30:57.826Z,156.00
2019-04-29T04:31:57.698Z,168.00
2019-04-29T04:32:57.562Z,180.00
2019-04-29T04:33:57.424Z,184.00
2019-04-29T04:34:57.292Z,188.00
2019-04-29T04:35:57.172Z,196.00
2019-04-29T04:37:00.188Z,212.00
2019-04-29T04:37:56.894Z,216.00
2019-04-29T04:38:56.761Z,228.00
2019-04-29T04:39:56.630Z,224.00
2019-04-29T04:40:56.497Z,232.00
2019-04-29T04:41:56.362Z,248.00
2019-04-29T04:42:56.231Z,256.00
2019-04-29T04:43:56.097Z,272.00
2019-04-29T04:44:55.965Z,288.00
2019-04-29T04:45:56.571Z,292.00
2019-04-29T04:46:55.707Z,312.00
2019-04-29T04:47:55.617Z,316.00
2019-04-29T04:48:55.434Z,292.00
2019-04-29T04:49:55.301Z,308.00
2019-04-29T04:50:55.165Z,316.00
2019-04-29T04:51:55.031Z,324.00
2019-04-29T04:52:54.900Z,344.00
2019-04-29T04:53:54.769Z,364.00
2019-04-29T04:54:54.635Z,372.00
2019-04-29T04:55:54.500Z,372.00
2019-04-29T04:56:54.368Z,352.00
2019-04-29T04:57:54.236Z,328.00
2019-04-29T04:58:54.103Z,296.00
2019-04-29T04:59:53.968Z,284.00
2019-04-29T05:00:53.842Z,284.00
2019-04-29T05:01:53.706Z,288.00
2019-04-29T05:02:53.570Z,292.00
2019-04-29T05:03:53.439Z,292.00
2019-04-29T05:04:53.308Z,304.00
2019-04-29T05:05:53.172Z,300.00
2019-04-29T05:06:53.041Z,292.00
2019-04-29T05:07:52.906Z,288.00
2019-04-29T05:08:52.775Z,288.00
2019-04-29T05:09:54.247Z,288.00
2019-04-29T05:10:52.506Z,300.00
2019-04-29T05:11:52.375Z,336.00
2019-04-29T05:12:52.242Z,364.00
2019-04-29T05:13:52.110Z,388.00
2019-04-29T05:14:52.569Z,400.00
2019-04-29T05:15:51.848Z,428.00
2019-04-29T05:16:51.719Z,444.00
2019-04-29T05:17:53.261Z,460.00
2019-04-29T05:18:51.445Z,484.00
2019-04-29T05:19:51.313Z,508.00
2019-04-29T05:20:51.181Z,524.00
2019-04-29T05:21:51.047Z,540.00
2019-04-29T05:22:50.920Z,560.00
2019-04-29T05:23:50.783Z,576.00
2019-04-29T05:24:50.650Z,620.00
2019-04-29T05:25:50.517Z,684.00
2019-04-29T05:26:50.385Z,768.00
2019-04-29T05:27:50.250Z,852.00
2019-04-29T05:28:50.117Z,876.00
2019-04-29T05:29:49.983Z,940.00
2019-04-29T05:30:49.857Z,1012.00
2019-04-29T05:31:49.723Z,1028.00
2019-04-29T05:32:49.591Z,1032.00
2019-04-29T05:33:49.454Z,1016.00
2019-04-29T05:34:49.320Z,1028.00
2019-04-29T05:35:49.198Z,1052.00
2019-04-29T05:36:49.142Z,1084.00
2019-04-29T05:37:48.923Z,1108.00
2019-04-29T05:38:48.790Z,1184.00
2019-04-29T05:39:48.655Z,1156.00
2019-04-29T05:40:48.530Z,1092.00
2019-04-29T05:41:48.397Z,1112.00
2019-04-29T05:42:52.161Z,1132.00
2019-04-29T05:43:48.577Z,1144.00
2019-04-29T05:44:47.997Z,1156.00
2019-04-29T05:45:47.920Z,1148.00
2019-04-29T05:46:47.726Z,1188.00
2019-04-29T05:47:47.595Z,1220.00
2019-04-29T05:48:47.463Z,1216.00
2019-04-29T05:49:47.331Z,1292.00
2019-04-29T05:50:47.564Z,1376.00
2019-04-29T05:51:47.064Z,1408.00
2019-04-29T05:52:49.742Z,1392.00
2019-04-29T05:53:47.865Z,1336.00
2019-04-29T05:54:46.672Z,1340.00
2019-04-29T05:55:46.534Z,1364.00
2019-04-29T05:56:46.403Z,1416.00
2019-04-29T05:57:46.271Z,1472.00
2019-04-29T05:58:46.136Z,1528.00
2019-04-29T05:59:47.901Z,1568.00
2019-04-29T06:00:45.872Z,1484.00
2019-04-29T06:01:47.261Z,1384.00
2019-04-29T06:02:45.603Z,1324.00
2019-04-29T06:03:45.481Z,1228.00
2019-04-29T06:04:48.092Z,1164.00
2019-04-29T06:05:45.204Z,1128.00
2019-04-29T06:06:45.074Z,1012.00
2019-04-29T06:07:44.942Z,1000.00
2019-04-29T06:08:44.806Z,980.00
2019-04-29T06:09:46.255Z,944.00
2019-04-29T06:10:44.541Z,944.00
2019-04-29T06:11:44.410Z,1008.00
2019-04-29T06:12:44.752Z,996.00
2019-04-29T06:13:44.145Z,992.00
2019-04-29T06:14:44.013Z,952.00
2019-04-29T06:15:43.880Z,944.00
2019-04-29T06:16:43.750Z,932.00
2019-04-29T06:17:44.647Z,992.00
2019-04-29T06:18:43.481Z,972.00
2019-04-29T06:19:43.348Z,1032.00
2019-04-29T06:20:43.218Z,1120.00
2019-04-29T06:21:43.087Z,1188.00
2019-04-29T06:22:43.500Z,1228.00
2019-04-29T06:23:42.818Z,1236.00
2019-04-29T06:24:42.687Z,1244.00
2019-04-29T06:25:42.553Z,1188.00
2019-04-29T06:26:43.685Z,1204.00
2019-04-29T06:27:42.287Z,1224.00
2019-04-29T06:28:42.159Z,1224.00
2019-04-29T06:29:42.026Z,1292.00
2019-04-29T06:30:45.163Z,1388.00
2019-04-29T06:31:41.764Z,1504.00
2019-04-29T06:32:41.626Z,1692.00
2019-04-29T06:33:41.495Z,1876.00
2019-04-29T06:34:41.783Z,1764.00
2019-04-29T06:35:43.326Z,1592.00
2019-04-29T06:36:41.099Z,1376.00
2019-04-29T06:37:40.968Z,1176.00
2019-04-29T06:38:40.842Z,1088.00
2019-04-29T06:39:40.702Z,1072.00
2019-04-29T06:40:40.570Z,1116.00
2019-04-29T06:41:44.856Z,1192.00
2019-04-29T06:42:40.304Z,1284.00
2019-04-29T06:43:40.173Z,1444.00
2019-04-29T06:44:40.045Z,1548.00
2019-04-29T06:45:39.910Z,1640.00
2019-04-29T06:46:39.774Z,1756.00
2019-04-29T06:47:39.644Z,1748.00
2019-04-29T06:48:39.512Z,1724.00
2019-04-29T06:49:39.378Z,1708.00
2019-04-29T06:50:39.246Z,1732.00
2019-04-29T06:51:39.114Z,1836.00
2019-04-29T06:52:38.997Z,1956.00
2019-04-29T06:53:38.849Z,2020.00
2019-04-29T06:54:38.731Z,2140.00
2019-04-29T06:55:38.585Z,2084.00
2019-04-29T06:56:38.457Z,1940.00
2019-04-29T06:57:38.321Z,2060.00
2019-04-29T06:58:38.530Z,2160.00
2019-04-29T06:59:38.057Z,2196.00
2019-04-29T07:00:37.926Z,2312.00
2019-04-29T07:01:38.744Z,2284.00
2019-04-29T07:02:37.658Z,2236.00
2019-04-29T07:03:37.531Z,2192.00
2019-04-29T07:04:39.517Z,2380.00
2019-04-29T07:05:37.264Z,2736.00
2019-04-29T07:06:37.131Z,3112.00
2019-04-29T07:07:37.001Z,3228.00
2019-04-29T07:08:36.867Z,3176.00
2019-04-29T07:09:36.735Z,2956.00
2019-04-29T07:10:36.618Z,2860.00
2019-04-29T07:11:38.240Z,3000.00
2019-04-29T07:12:36.344Z,2968.00
2019-04-29T07:13:36.208Z,2996.00
2019-04-29T07:14:38.601Z,2996.00
2019-04-29T07:15:35.943Z,2976.00
2019-04-29T07:16:35.816Z,2804.00
2019-04-29T07:17:41.321Z,2500.00
2019-04-29T07:18:35.548Z,2088.00
2019-04-29T07:19:35.418Z,1952.00
2019-04-29T07:20:37.231Z,2160.00
2019-04-29T07:21:35.154Z,2400.00
2019-04-29T07:22:35.020Z,2568.00
2019-04-29T07:23:34.893Z,2548.00
2019-04-29T07:24:34.761Z,2656.00
2019-04-29T07:25:34.631Z,2724.00
2019-04-29T07:26:34.516Z,2868.00
2019-04-29T07:27:39.086Z,2548.00
2019-04-29T07:28:34.232Z,2908.00
2019-04-29T07:29:34.098Z,2944.00
2019-04-29T07:30:39.197Z,2500.00
2019-04-29T07:31:35.167Z,2496.00
2019-04-29T07:32:33.701Z,2960.00
2019-04-29T07:33:33.572Z,3320.00
2019-04-29T07:34:35.675Z,3424.00
2019-04-29T07:35:33.308Z,3160.00
2019-04-29T07:36:33.173Z,2340.00
2019-04-29T07:37:34.196Z,1904.00
2019-04-29T07:38:41.222Z,1488.00
2019-04-29T07:39:33.484Z,1260.00
2019-04-29T07:40:32.647Z,1148.00
2019-04-29T07:41:32.516Z,1180.00
2019-04-29T07:42:33.365Z,1412.00
2019-04-29T07:43:32.251Z,1440.00
2019-04-29T07:44:43.330Z,1356.00
2019-04-29T07:45:43.699Z,1100.00
2019-04-29T07:46:36.437Z,1036.00
2019-04-29T07:47:31.722Z,1044.00
2019-04-29T07:48:31.595Z,1140.00
2019-04-29T07:49:31.461Z,1328.00
2019-04-29T07:50:31.327Z,1468.00
2019-04-29T07:51:34.840Z,1660.00
2019-04-29T07:52:31.064Z,1604.00
2019-04-29T07:53:38.747Z,1460.00
2019-04-29T07:54:32.770Z,1304.00
2019-04-29T07:55:31.321Z,1276.00
2019-04-29T07:56:30.535Z,1204.00
2019-04-29T07:57:30.407Z,1056.00
2019-04-29T07:58:30.271Z,1072.00
2019-04-29T07:59:33.888Z,1148.00
2019-04-29T08:00:30.009Z,1296.00
2019-04-29T08:01:29.876Z,1456.00
2019-04-29T08:02:29.741Z,1556.00
2019-04-29T08:03:29.615Z,1744.00
2019-04-29T08:04:29.479Z,1840.00
2019-04-29T08:05:29.346Z,1848.00
2019-04-29T08:06:29.215Z,1844.00
2019-04-29T08:07:29.085Z,1708.00
2019-04-29T08:08:30.774Z,1760.00
2019-04-29T08:09:28.821Z,1744.00
2019-04-29T08:10:29.888Z,1684.00
2019-04-29T08:11:28.556Z,1540.00
2019-04-29T08:12:28.424Z,1552.00
2019-04-29T08:13:28.290Z,1612.00
2019-04-29T08:14:28.165Z,1624.00
2019-04-29T08:15:28.028Z,1696.00
2019-04-29T08:16:27.895Z,1768.00
2019-04-29T08:17:27.763Z,2024.00
2019-04-29T08:18:27.630Z,2148.00
2019-04-29T08:19:29.526Z,1984.00
2019-04-29T08:20:27.366Z,1768.00
2019-04-29T08:21:27.237Z,1780.00
2019-04-29T08:22:27.757Z,1836.00
2019-04-29T08:23:26.975Z,1824.00
2019-04-29T08:24:26.847Z,1672.00
2019-04-29T08:25:27.200Z,1740.00
2019-04-29T08:26:26.575Z,1716.00
2019-04-29T08:27:39.257Z,1648.00
2019-04-29T08:28:26.312Z,1584.00
2019-04-29T08:29:26.176Z,1676.00
2019-04-29T08:30:26.046Z,1752.00
2019-04-29T08:31:25.914Z,1696.00
2019-04-29T08:32:25.789Z,1588.00
2019-04-29T08:33:25.661Z,1372.00
2019-04-29T08:34:25.516Z,1260.00
2019-04-29T08:35:25.386Z,1312.00
2019-04-29T08:36:25.254Z,1464.00
2019-04-29T08:37:25.125Z,1684.00
2019-04-29T08:38:24.991Z,1412.00
2019-04-29T08:39:28.857Z,1340.00
2019-04-29T08:40:24.728Z,1696.00
2019-04-29T08:41:28.467Z,1780.00
2019-04-29T08:42:24.462Z,1892.00
2019-04-29T08:43:24.328Z,2024.00
2019-04-29T08:44:24.198Z,2188.00
2019-04-29T08:45:24.064Z,2244.00
2019-04-29T08:46:23.933Z,2460.00
2019-04-29T08:47:30.423Z,2548.00
2019-04-29T08:48:23.670Z,2616.00
2019-04-29T08:49:23.547Z,2404.00
2019-04-29T08:50:23.407Z,2256.00
2019-04-29T08:51:23.274Z,2200.00
2019-04-29T08:52:23.143Z,2528.00
2019-04-29T08:53:23.011Z,2492.00
2019-04-29T08:54:22.876Z,2380.00
2019-04-29T08:55:26.650Z,2248.00
2019-04-29T08:56:22.614Z,1940.00
2019-04-29T08:57:24.280Z,1736.00
2019-04-29T08:58:22.350Z,1600.00
2019-04-29T08:59:24.515Z,1652.00
2019-04-29T09:00:22.085Z,1644.00
2019-04-29T09:01:24.641Z,1668.00
2019-04-29T09:02:33.594Z,1652.00
2019-04-29T09:03:23.378Z,1532.00
2019-04-29T09:04:21.560Z,1448.00
2019-04-29T09:05:21.427Z,1280.00
2019-04-29T09:06:21.295Z,1244.00
2019-04-29T09:07:22.126Z,1228.00
2019-04-29T09:08:21.212Z,1176.00
2019-04-29T09:09:29.348Z,1276.00
2019-04-29T09:10:20.773Z,1204.00
2019-04-29T09:11:20.639Z,1180.00
2019-04-29T09:12:24.265Z,1308.00
2019-04-29T09:13:20.371Z,1384.00
2019-04-29T09:14:20.238Z,1344.00
2019-04-29T09:15:20.118Z,1268.00
2019-04-29T09:16:19.980Z,1284.00
2019-04-29T09:17:20.878Z,1412.00
2019-04-29T09:18:19.711Z,1516.00
2019-04-29T09:19:19.579Z,1492.00
2019-04-29T09:20:19.456Z,1612.00
2019-04-29T09:21:19.315Z,1724.00
2019-04-29T09:22:19.183Z,1872.00
2019-04-29T09:23:19.057Z,1988.00
2019-04-29T09:24:18.924Z,2420.00
2019-04-29T09:25:21.409Z,2816.00
2019-04-29T09:26:18.656Z,2852.00
2019-04-29T09:27:18.538Z,2768.00
2019-04-29T09:28:26.976Z,2912.00
2019-04-29T09:29:18.265Z,2516.00
2019-04-29T09:30:18.127Z,2296.00
2019-04-29T09:31:17.997Z,2428.00
2019-04-29T09:32:17.865Z,2560.00
2019-04-29T09:33:17.733Z,2524.00
2019-04-29T09:34:19.911Z,2520.00
2019-04-29T09:35:17.469Z,2632.00
2019-04-29T09:36:17.340Z,2920.00
2019-04-29T09:37:18.559Z,3148.00
2019-04-29T09:38:17.074Z,3136.00
2019-04-29T09:39:16.942Z,3104.00
2019-04-29T09:40:16.822Z,3332.00
2019-04-29T09:41:16.683Z,3328.00
2019-04-29T09:42:16.548Z,3104.00
2019-04-29T09:43:16.418Z,3012.00
2019-04-29T09:44:16.289Z,2932.00
2019-04-29T09:45:19.566Z,3120.00
2019-04-29T09:46:18.577Z,3324.00
2019-04-29T09:47:15.891Z,3544.00
2019-04-29T09:48:15.764Z,3916.00
2019-04-29T09:49:15.629Z,3928.00
2019-04-29T09:50:15.497Z,4104.00
2019-04-29T09:51:17.904Z,4040.00
2019-04-29T09:52:15.242Z,4244.00
2019-04-29T09:53:15.106Z,4732.00
2019-04-29T09:54:16.281Z,4516.00
2019-04-29T09:55:14.841Z,3968.00
2019-04-29T09:56:14.714Z,4284.00
2019-04-29T09:57:14.581Z,4328.00
2019-04-29T09:58:14.450Z,4420.00
2019-04-29T09:59:14.318Z,4192.00
2019-04-29T10:00:14.188Z,4380.00
2019-04-29T10:01:18.908Z,4788.00
2019-04-29T10:02:13.930Z,5788.00
2019-04-29T10:03:13.793Z,5920.00
2019-04-29T10:04:13.664Z,5552.00
2019-04-29T10:05:13.534Z,5752.00
2019-04-29T10:06:13.399Z,5900.00
2019-04-29T10:07:13.273Z,5820.00
2019-04-29T10:08:13.141Z,4500.00
2019-04-29T10:09:13.008Z,4192.00
2019-04-29T10:10:12.880Z,4452.00
2019-04-29T10:11:12.750Z,5244.00
2019-04-29T10:12:12.619Z,5416.00
2019-04-29T10:13:12.488Z,4740.00
2019-04-29T10:14:12.357Z,4416.00
2019-04-29T10:15:12.223Z,4524.00
2019-04-29T10:16:12.096Z,4420.00
2019-04-29T10:17:15.391Z,3964.00
2019-04-29T10:18:11.835Z,3972.00
2019-04-29T10:19:11.701Z,4308.00
2019-04-29T10:20:11.572Z,5112.00
2019-04-29T10:21:11.442Z,4748.00
2019-04-29T10:22:11.336Z,4228.00
2019-04-29T10:23:11.178Z,3876.00
2019-04-29T10:24:11.049Z,3816.00
2019-04-29T10:25:10.926Z,4108.00
2019-04-29T10:26:10.788Z,4404.00
2019-04-29T10:27:10.664Z,5048.00
2019-04-29T10:28:10.527Z,5768.00
2019-04-29T10:29:13.756Z,5648.00
2019-04-29T10:30:10.269Z,4564.00
2019-04-29T10:31:10.140Z,3784.00
2019-04-29T10:32:10.016Z,3552.00
2019-04-29T10:33:12.778Z,3484.00
2019-04-29T10:34:10.713Z,3696.00
2019-04-29T10:35:10.678Z,4088.00
2019-04-29T10:36:09.483Z,4456.00
2019-04-29T10:37:09.354Z,4836.00
2019-04-29T10:38:09.220Z,4928.00
2019-04-29T10:39:09.092Z,5612.00
2019-04-29T10:40:11.451Z,4084.00
2019-04-29T10:41:08.831Z,3044.00
2019-04-29T10:42:08.699Z,2804.00
2019-04-29T10:43:11.359Z,2712.00
2019-04-29T10:44:08.439Z,2920.00
2019-04-29T10:45:08.310Z,3084.00
2019-04-29T10:46:08.176Z,3180.00
2019-04-29T10:47:08.053Z,3224.00
2019-04-29T10:48:07.923Z,3224.00
2019-04-29T10:49:07.785Z,3272.00
2019-04-29T10:50:10.567Z,3624.00
2019-04-29T10:51:07.524Z,3756.00
2019-04-29T10:52:07.394Z,3400.00
2019-04-29T10:53:10.939Z,3404.00
2019-04-29T10:54:07.134Z,3124.00
2019-04-29T10:55:07.007Z,2936.00
2019-04-29T10:56:07.033Z,2836.00
2019-04-29T10:57:10.423Z,2752.00
2019-04-29T10:58:06.612Z,2608.00
2019-04-29T10:59:09.259Z,2528.00
2019-04-29T11:00:06.349Z,2664.00
2019-04-29T11:01:06.219Z,2972.00
2019-04-29T11:02:13.355Z,3148.00
2019-04-29T11:03:06.739Z,3332.00
2019-04-29T11:04:08.736Z,3904.00
2019-04-29T11:05:07.858Z,4248.00
2019-04-29T11:06:05.565Z,4768.00
2019-04-29T11:07:13.823Z,5056.00
2019-04-29T11:08:05.303Z,5192.00
2019-04-29T11:09:05.184Z,5368.00
2019-04-29T11:10:07.957Z,5564.00
2019-04-29T11:11:04.911Z,6372.00
2019-04-29T11:12:04.782Z,6404.00
2019-04-29T11:13:04.654Z,5912.00
2019-04-29T11:14:04.525Z,5676.00
2019-04-29T11:15:04.395Z,5976.00
2019-04-29T11:16:04.257Z,6580.00
2019-04-29T11:17:04.129Z,6892.00
2019-04-29T11:18:04.039Z,7208.00
2019-04-29T11:19:05.550Z,7664.00
2019-04-29T11:20:03.739Z,8900.00
2019-04-29T11:21:03.617Z,9396.00
2019-04-29T11:22:03.478Z,9052.00
2019-04-29T11:23:03.354Z,8272.00
2019-04-29T11:24:03.222Z,8128.00
2019-04-29T11:25:03.087Z,7684.00
2019-04-29T11:26:02.959Z,7712.00
2019-04-29T11:27:11.511Z,7564.00
2019-04-29T11:28:02.702Z,7264.00
2019-04-29T11:29:05.420Z,7432.00
2019-04-29T11:30:03.179Z,7604.00
2019-04-29T11:31:02.311Z,7896.00
2019-04-29T11:32:02.739Z,8208.00
2019-04-29T11:33:04.775Z,8008.00
2019-04-29T11:34:05.229Z,8100.00
2019-04-29T11:35:01.792Z,8080.00
2019-04-29T11:36:03.825Z,7232.00
2019-04-29T11:37:01.537Z,6112.00
2019-04-29T11:38:01.410Z,5828.00
2019-04-29T11:39:01.277Z,6456.00
2019-04-29T11:40:01.151Z,8396.00
2019-04-29T11:41:01.017Z,9160.00
2019-04-29T11:42:01.608Z,9456.00
2019-04-29T11:43:00.757Z,9784.00
2019-04-29T11:44:00.628Z,10412.00
2019-04-29T11:45:01.950Z,9588.00
2019-04-29T11:46:00.371Z,8796.00
2019-04-29T11:47:00.243Z,8532.00
2019-04-29T11:48:00.111Z,8764.00
2019-04-29T11:48:59.984Z,9500.00
2019-04-29T11:49:59.853Z,9216.00
2019-04-29T11:50:59.727Z,7416.00
2019-04-29T11:52:09.116Z,6640.00
2019-04-29T11:52:59.474Z,7836.00
2019-04-29T11:53:59.340Z,8396.00
2019-04-29T11:54:59.209Z,8032.00
2019-04-29T11:55:59.081Z,7144.00
2019-04-29T11:56:58.954Z,6980.00
2019-04-29T11:57:58.834Z,5908.00
2019-04-29T11:58:58.724Z,5784.00
2019-04-29T11:59:58.569Z,6540.00
2019-04-29T12:00:58.747Z,7792.00
2019-04-29T12:01:59.760Z,8368.00
2019-04-29T12:02:58.183Z,8552.00
2019-04-29T12:03:58.356Z,8140.00
2019-04-29T12:04:57.927Z,7928.00
2019-04-29T12:05:57.798Z,6764.00
2019-04-29T12:06:58.173Z,5472.00
2019-04-29T12:07:57.544Z,5416.00
2019-04-29T12:08:57.412Z,5972.00
2019-04-29T12:09:57.283Z,5840.00
2019-04-29T12:11:06.433Z,5756.00
2019-04-29T12:11:57.028Z,5952.00
2019-04-29T12:12:56.901Z,5640.00
2019-04-29T12:13:58.926Z,4668.00
2019-04-29T12:14:56.640Z,4008.00
2019-04-29T12:15:56.516Z,3756.00
2019-04-29T12:16:56.385Z,3812.00
2019-04-29T12:17:56.257Z,3756.00
2019-04-29T12:18:56.133Z,3576.00
2019-04-29T12:19:56.005Z,3728.00
2019-04-29T12:20:55.872Z,4412.00
2019-04-29T12:21:55.743Z,6640.00
2019-04-29T12:22:55.615Z,9452.00
2019-04-29T12:23:55.486Z,11404.00
2019-04-29T12:24:55.382Z,11048.00
2019-04-29T12:25:58.607Z,9960.00
2019-04-29T12:26:55.097Z,8588.00
2019-04-29T12:28:01.472Z,7352.00
2019-04-29T12:28:54.842Z,6880.00
2019-04-29T12:29:59.169Z,8188.00